sensor_id;sensor_type;location;lat;lon;timestamp;temperature;humidity
35491;DHT22;21605;52.068;20.806;2022-11-20T00:02:02;-3.10;99.00
35491;DHT22;21605;52.068;20.806;2022-11-20T00:04:27;-3.10;98.50
35491;DHT22;21605;52.068;20.806;2022-11-20T00:06:52;-3.10;98.60
35491;DHT22;21605;52.068;20.806;2022-11-20T00:09:18;-3.10;98.70
35491;DHT22;21605;52.068;20.806;2022-11-20T00:11:43;-3.10;98.80
35491;DHT22;21605;52.068;20.806;2022-11-20T00:14:09;-3.10;98.70
35491;DHT22;21605;52.068;20.806;2022-11-20T00:16:34;-3.10;98.60
35491;DHT22;21605;52.068;20.806;2022-11-20T00:19:00;-3.10;98.60
35491;DHT22;21605;52.068;20.806;2022-11-20T00:21:26;-3.10;98.70
35491;DHT22;21605;52.068;20.806;2022-11-20T00:23:54;-3.10;98.80
35491;DHT22;21605;52.068;20.806;2022-11-20T00:26:20;-3.10;98.90
35491;DHT22;21605;52.068;20.806;2022-11-20T00:28:50;-3.10;99.00
35491;DHT22;21605;52.068;20.806;2022-11-20T00:31:16;-3.00;98.90
35491;DHT22;21605;52.068;20.806;2022-11-20T00:33:42;-3.00;98.90
35491;DHT22;21605;52.068;20.806;2022-11-20T00:36:09;-3.00;98.90
35491;DHT22;21605;52.068;20.806;2022-11-20T00:38:35;-3.00;99.00
35491;DHT22;21605;52.068;20.806;2022-11-20T00:41:01;-3.00;99.10
35491;DHT22;21605;52.068;20.806;2022-11-20T00:43:27;-3.00;99.10
35491;DHT22;21605;52.068;20.806;2022-11-20T00:45:59;-3.00;99.20
35491;DHT22;21605;52.068;20.806;2022-11-20T00:48:25;-3.00;99.40
35491;DHT22;21605;52.068;20.806;2022-11-20T00:50:51;-3.00;99.60
35491;DHT22;21605;52.068;20.806;2022-11-20T00:53:17;-2.90;99.30
35491;DHT22;21605;52.068;20.806;2022-11-20T00:55:42;-2.80;99.30
35491;DHT22;21605;52.068;20.806;2022-11-20T00:58:08;-2.80;99.40
35491;DHT22;21605;52.068;20.806;2022-11-20T01:00:34;-2.70;99.30
35491;DHT22;21605;52.068;20.806;2022-11-20T01:02:59;-2.70;99.20
35491;DHT22;21605;52.068;20.806;2022-11-20T01:05:25;-2.70;99.20
35491;DHT22;21605;52.068;20.806;2022-11-20T01:07:50;-2.70;99.10
35491;DHT22;21605;52.068;20.806;2022-11-20T01:10:16;-2.70;99.20
35491;DHT22;21605;52.068;20.806;2022-11-20T01:12:42;-2.70;99.30
35491;DHT22;21605;52.068;20.806;2022-11-20T01:15:08;-2.80;99.20
35491;DHT22;21605;52.068;20.806;2022-11-20T01:17:33;-2.80;99.30
35491;DHT22;21605;52.068;20.806;2022-11-20T01:19:59;-2.80;99.40
35491;DHT22;21605;52.068;20.806;2022-11-20T01:22:24;-2.70;99.30
35491;DHT22;21605;52.068;20.806;2022-11-20T01:24:50;-2.70;99.20
35491;DHT22;21605;52.068;20.806;2022-11-20T01:27:15;-2.70;99.20
35491;DHT22;21605;52.068;20.806;2022-11-20T01:29:41;-2.60;99.10
35491;DHT22;21605;52.068;20.806;2022-11-20T01:32:06;-2.60;99.00
35491;DHT22;21605;52.068;20.806;2022-11-20T01:34:31;-2.60;99.00
35491;DHT22;21605;52.068;20.806;2022-11-20T01:36:57;-2.60;99.10
35491;DHT22;21605;52.068;20.806;2022-11-20T01:39:24;-2.60;99.00
35491;DHT22;21605;52.068;20.806;2022-11-20T01:41:50;-2.70;99.20
35491;DHT22;21605;52.068;20.806;2022-11-20T01:47:09;-2.60;99.00
35491;DHT22;21605;52.068;20.806;2022-11-20T01:49:42;-2.50;99.00
35491;DHT22;21605;52.068;20.806;2022-11-20T01:52:17;-2.60;98.90
35491;DHT22;21605;52.068;20.806;2022-11-20T01:54:45;-2.60;99.00
35491;DHT22;21605;52.068;20.806;2022-11-20T01:57:12;-2.60;99.00
35491;DHT22;21605;52.068;20.806;2022-11-20T01:59:39;-2.60;99.00
35491;DHT22;21605;52.068;20.806;2022-11-20T02:02:06;-2.60;99.10
35491;DHT22;21605;52.068;20.806;2022-11-20T02:04:31;-2.60;99.00
35491;DHT22;21605;52.068;20.806;2022-11-20T02:06:58;-2.60;99.00
35491;DHT22;21605;52.068;20.806;2022-11-20T02:09:25;-2.70;99.00
35491;DHT22;21605;52.068;20.806;2022-11-20T02:11:51;-2.70;99.10
35491;DHT22;21605;52.068;20.806;2022-11-20T02:14:17;-2.70;99.00
35491;DHT22;21605;52.068;20.806;2022-11-20T02:16:46;-2.70;99.00
35491;DHT22;21605;52.068;20.806;2022-11-20T02:19:30;-2.70;99.00
35491;DHT22;21605;52.068;20.806;2022-11-20T02:22:06;-2.70;99.00
35491;DHT22;21605;52.068;20.806;2022-11-20T02:24:33;-2.70;99.10
35491;DHT22;21605;52.068;20.806;2022-11-20T02:27:00;-2.80;99.40
35491;DHT22;21605;52.068;20.806;2022-11-20T02:29:28;-2.80;99.10
35491;DHT22;21605;52.068;20.806;2022-11-20T02:31:54;-2.80;99.10
35491;DHT22;21605;52.068;20.806;2022-11-20T02:34:20;-2.60;99.20
35491;DHT22;21605;52.068;20.806;2022-11-20T02:36:46;-2.80;99.10
35491;DHT22;21605;52.068;20.806;2022-11-20T02:39:11;-2.80;99.10
35491;DHT22;21605;52.068;20.806;2022-11-20T02:41:38;-2.80;99.20
35491;DHT22;21605;52.068;20.806;2022-11-20T02:44:04;-2.80;99.20
35491;DHT22;21605;52.068;20.806;2022-11-20T02:46:30;-2.80;99.30
35491;DHT22;21605;52.068;20.806;2022-11-20T02:48:56;-2.80;99.30
35491;DHT22;21605;52.068;20.806;2022-11-20T02:51:22;-2.90;99.30
35491;DHT22;21605;52.068;20.806;2022-11-20T02:53:47;-2.80;99.30
35491;DHT22;21605;52.068;20.806;2022-11-20T02:56:13;-2.90;99.30
35491;DHT22;21605;52.068;20.806;2022-11-20T02:58:39;-2.90;99.40
35491;DHT22;21605;52.068;20.806;2022-11-20T03:04:07;-2.90;99.60
35491;DHT22;21605;52.068;20.806;2022-11-20T03:06:33;-2.70;99.40
35491;DHT22;21605;52.068;20.806;2022-11-20T03:08:58;-3.00;99.70
35491;DHT22;21605;52.068;20.806;2022-11-20T03:11:24;-2.90;99.50
35491;DHT22;21605;52.068;20.806;2022-11-20T03:13:49;-2.80;99.30
35491;DHT22;21605;52.068;20.806;2022-11-20T03:16:16;-2.80;99.40
35491;DHT22;21605;52.068;20.806;2022-11-20T03:18:42;-2.90;99.40
35491;DHT22;21605;52.068;20.806;2022-11-20T03:21:08;-3.00;99.50
35491;DHT22;21605;52.068;20.806;2022-11-20T03:23:34;-3.00;99.80
35491;DHT22;21605;52.068;20.806;2022-11-20T03:26:16;-3.00;99.40
35491;DHT22;21605;52.068;20.806;2022-11-20T03:28:42;-3.00;99.40
35491;DHT22;21605;52.068;20.806;2022-11-20T03:31:12;-3.10;99.40
35491;DHT22;21605;52.068;20.806;2022-11-20T03:33:38;-3.10;99.30
35491;DHT22;21605;52.068;20.806;2022-11-20T03:36:05;-3.10;99.30
35491;DHT22;21605;52.068;20.806;2022-11-20T03:38:31;-3.20;99.30
35491;DHT22;21605;52.068;20.806;2022-11-20T03:40:58;-3.20;99.20
35491;DHT22;21605;52.068;20.806;2022-11-20T03:43:23;-3.20;99.40
35491;DHT22;21605;52.068;20.806;2022-11-20T03:45:49;-3.20;99.30
35491;DHT22;21605;52.068;20.806;2022-11-20T03:48:14;-3.30;99.20
35491;DHT22;21605;52.068;20.806;2022-11-20T03:50:40;-3.30;99.20
35491;DHT22;21605;52.068;20.806;2022-11-20T03:53:05;-3.40;99.20
35491;DHT22;21605;52.068;20.806;2022-11-20T03:55:31;-3.40;99.40
35491;DHT22;21605;52.068;20.806;2022-11-20T03:57:56;-3.40;99.40
35491;DHT22;21605;52.068;20.806;2022-11-20T04:00:22;-3.50;99.30
35491;DHT22;21605;52.068;20.806;2022-11-20T04:02:47;-3.50;99.30
35491;DHT22;21605;52.068;20.806;2022-11-20T04:05:13;-3.50;99.30
35491;DHT22;21605;52.068;20.806;2022-11-20T04:07:38;-3.60;99.40
35491;DHT22;21605;52.068;20.806;2022-11-20T04:10:04;-3.60;99.30
35491;DHT22;21605;52.068;20.806;2022-11-20T04:12:31;-3.60;99.40
35491;DHT22;21605;52.068;20.806;2022-11-20T04:14:57;-3.60;99.40
35491;DHT22;21605;52.068;20.806;2022-11-20T04:17:22;-3.60;99.40
35491;DHT22;21605;52.068;20.806;2022-11-20T04:19:48;-3.70;99.30
35491;DHT22;21605;52.068;20.806;2022-11-20T04:22:13;-3.70;99.30
35491;DHT22;21605;52.068;20.806;2022-11-20T04:24:38;-3.70;99.90
35491;DHT22;21605;52.068;20.806;2022-11-20T04:27:04;-3.80;99.90
35491;DHT22;21605;52.068;20.806;2022-11-20T04:29:29;-3.70;99.90
35491;DHT22;21605;52.068;20.806;2022-11-20T04:31:55;-3.80;99.90
35491;DHT22;21605;52.068;20.806;2022-11-20T04:34:20;-3.80;99.90
35491;DHT22;21605;52.068;20.806;2022-11-20T04:36:46;-3.70;99.90
35491;DHT22;21605;52.068;20.806;2022-11-20T04:39:12;-3.90;99.90
35491;DHT22;21605;52.068;20.806;2022-11-20T04:41:38;-3.90;99.90
35491;DHT22;21605;52.068;20.806;2022-11-20T04:44:04;-3.90;99.90
35491;DHT22;21605;52.068;20.806;2022-11-20T04:46:34;-3.90;99.90
35491;DHT22;21605;52.068;20.806;2022-11-20T04:49:00;-3.90;99.90
35491;DHT22;21605;52.068;20.806;2022-11-20T04:51:26;-3.80;99.90
35491;DHT22;21605;52.068;20.806;2022-11-20T04:53:51;-4.00;99.90
35491;DHT22;21605;52.068;20.806;2022-11-20T04:56:17;-4.00;99.90
35491;DHT22;21605;52.068;20.806;2022-11-20T04:58:42;-3.90;99.90
35491;DHT22;21605;52.068;20.806;2022-11-20T05:01:18;-3.90;99.90
35491;DHT22;21605;52.068;20.806;2022-11-20T05:03:43;-4.00;99.90
35491;DHT22;21605;52.068;20.806;2022-11-20T05:06:10;-4.10;99.90
35491;DHT22;21605;52.068;20.806;2022-11-20T05:08:36;-3.70;99.90
35491;DHT22;21605;52.068;20.806;2022-11-20T05:11:02;-4.00;99.90
35491;DHT22;21605;52.068;20.806;2022-11-20T05:13:28;-4.10;99.90
35491;DHT22;21605;52.068;20.806;2022-11-20T05:15:54;-4.00;99.90
35491;DHT22;21605;52.068;20.806;2022-11-20T05:18:19;-4.10;99.90
35491;DHT22;21605;52.068;20.806;2022-11-20T05:20:45;-4.00;99.90
35491;DHT22;21605;52.068;20.806;2022-11-20T05:23:10;-4.10;99.90
35491;DHT22;21605;52.068;20.806;2022-11-20T05:25:36;-3.40;99.90
35491;DHT22;21605;52.068;20.806;2022-11-20T05:28:01;-4.10;99.90
35491;DHT22;21605;52.068;20.806;2022-11-20T05:30:27;-3.80;99.90
35491;DHT22;21605;52.068;20.806;2022-11-20T05:32:52;-4.10;99.90
35491;DHT22;21605;52.068;20.806;2022-11-20T05:35:18;-4.10;99.90
35491;DHT22;21605;52.068;20.806;2022-11-20T05:37:43;-4.10;99.90
35491;DHT22;21605;52.068;20.806;2022-11-20T05:40:09;-4.10;99.90
35491;DHT22;21605;52.068;20.806;2022-11-20T05:42:35;-4.10;99.90
35491;DHT22;21605;52.068;20.806;2022-11-20T05:45:01;-4.10;99.90
35491;DHT22;21605;52.068;20.806;2022-11-20T05:47:28;-4.20;99.90
35491;DHT22;21605;52.068;20.806;2022-11-20T05:49:56;-4.00;99.90
35491;DHT22;21605;52.068;20.806;2022-11-20T05:52:21;-4.00;99.90
35491;DHT22;21605;52.068;20.806;2022-11-20T05:54:47;-4.10;99.90
35491;DHT22;21605;52.068;20.806;2022-11-20T05:57:12;-4.10;99.90
35491;DHT22;21605;52.068;20.806;2022-11-20T05:59:38;-4.10;99.90
35491;DHT22;21605;52.068;20.806;2022-11-20T06:02:03;-4.10;99.90
35491;DHT22;21605;52.068;20.806;2022-11-20T06:04:29;-4.30;99.90
35491;DHT22;21605;52.068;20.806;2022-11-20T06:06:54;-3.40;99.90
35491;DHT22;21605;52.068;20.806;2022-11-20T06:09:20;-4.20;99.90
35491;DHT22;21605;52.068;20.806;2022-11-20T06:11:45;-4.20;99.90
35491;DHT22;21605;52.068;20.806;2022-11-20T06:14:11;-4.20;99.90
35491;DHT22;21605;52.068;20.806;2022-11-20T06:16:36;-4.30;99.90
35491;DHT22;21605;52.068;20.806;2022-11-20T06:19:02;-4.20;99.90
35491;DHT22;21605;52.068;20.806;2022-11-20T06:21:27;-4.30;99.90
35491;DHT22;21605;52.068;20.806;2022-11-20T06:23:53;-3.80;99.90
35491;DHT22;21605;52.068;20.806;2022-11-20T06:26:20;-4.10;99.90
35491;DHT22;21605;52.068;20.806;2022-11-20T06:28:46;-4.10;99.90
35491;DHT22;21605;52.068;20.806;2022-11-20T06:31:12;-4.30;99.90
35491;DHT22;21605;52.068;20.806;2022-11-20T06:33:39;-4.30;99.90
35491;DHT22;21605;52.068;20.806;2022-11-20T06:36:04;-4.10;99.90
35491;DHT22;21605;52.068;20.806;2022-11-20T06:38:30;-3.90;99.90
35491;DHT22;21605;52.068;20.806;2022-11-20T06:40:55;-4.30;99.90
35491;DHT22;21605;52.068;20.806;2022-11-20T06:43:21;-4.30;99.90
35491;DHT22;21605;52.068;20.806;2022-11-20T06:45:51;-4.30;99.90
35491;DHT22;21605;52.068;20.806;2022-11-20T06:48:17;-4.30;99.90
35491;DHT22;21605;52.068;20.806;2022-11-20T06:50:42;-4.30;99.90
35491;DHT22;21605;52.068;20.806;2022-11-20T06:53:08;-4.30;99.90
35491;DHT22;21605;52.068;20.806;2022-11-20T06:55:33;-4.20;99.90
35491;DHT22;21605;52.068;20.806;2022-11-20T06:57:59;-4.20;99.90
35491;DHT22;21605;52.068;20.806;2022-11-20T07:00:24;-4.20;99.90
35491;DHT22;21605;52.068;20.806;2022-11-20T07:02:50;-4.20;99.90
35491;DHT22;21605;52.068;20.806;2022-11-20T07:05:15;-4.10;99.90
35491;DHT22;21605;52.068;20.806;2022-11-20T07:07:41;-4.00;99.90
35491;DHT22;21605;52.068;20.806;2022-11-20T07:10:07;-3.80;99.90
35491;DHT22;21605;52.068;20.806;2022-11-20T07:12:33;-3.80;99.90
35491;DHT22;21605;52.068;20.806;2022-11-20T07:14:58;-3.70;99.90
35491;DHT22;21605;52.068;20.806;2022-11-20T07:17:24;-3.70;99.90
35491;DHT22;21605;52.068;20.806;2022-11-20T07:19:49;-2.10;99.90
35491;DHT22;21605;52.068;20.806;2022-11-20T07:22:15;-3.70;99.90
35491;DHT22;21605;52.068;20.806;2022-11-20T07:24:40;-3.70;99.90
35491;DHT22;21605;52.068;20.806;2022-11-20T07:27:06;-3.70;99.90
35491;DHT22;21605;52.068;20.806;2022-11-20T07:29:31;-3.70;99.90
35491;DHT22;21605;52.068;20.806;2022-11-20T07:31:56;-3.60;99.90
35491;DHT22;21605;52.068;20.806;2022-11-20T07:34:22;-3.40;99.90
35491;DHT22;21605;52.068;20.806;2022-11-20T07:36:48;-3.50;99.90
35491;DHT22;21605;52.068;20.806;2022-11-20T07:39:13;-3.30;99.90
35491;DHT22;21605;52.068;20.806;2022-11-20T07:41:39;-3.10;99.90
35491;DHT22;21605;52.068;20.806;2022-11-20T07:44:04;-3.10;99.90
35491;DHT22;21605;52.068;20.806;2022-11-20T07:46:30;-3.10;99.90
35491;DHT22;21605;52.068;20.806;2022-11-20T07:48:55;-3.00;99.90
35491;DHT22;21605;52.068;20.806;2022-11-20T07:51:21;-3.00;99.90
35491;DHT22;21605;52.068;20.806;2022-11-20T07:53:46;-3.00;99.90
35491;DHT22;21605;52.068;20.806;2022-11-20T07:56:12;-2.90;99.90
35491;DHT22;21605;52.068;20.806;2022-11-20T07:58:39;-2.90;99.90
35491;DHT22;21605;52.068;20.806;2022-11-20T08:01:05;-2.90;99.90
35491;DHT22;21605;52.068;20.806;2022-11-20T08:03:31;-1.80;99.90
35491;DHT22;21605;52.068;20.806;2022-11-20T08:06:00;-2.90;99.90
35491;DHT22;21605;52.068;20.806;2022-11-20T08:08:26;-2.90;99.90
35491;DHT22;21605;52.068;20.806;2022-11-20T08:10:52;-2.80;99.90
35491;DHT22;21605;52.068;20.806;2022-11-20T08:13:17;-2.80;99.90
35491;DHT22;21605;52.068;20.806;2022-11-20T08:16:18;-2.80;99.90
35491;DHT22;21605;52.068;20.806;2022-11-20T08:18:44;-2.70;99.90
35491;DHT22;21605;52.068;20.806;2022-11-20T08:21:09;-2.70;99.90
35491;DHT22;21605;52.068;20.806;2022-11-20T08:23:35;-2.60;99.90
35491;DHT22;21605;52.068;20.806;2022-11-20T08:26:00;-2.40;99.90
35491;DHT22;21605;52.068;20.806;2022-11-20T08:28:26;-2.30;99.90
35491;DHT22;21605;52.068;20.806;2022-11-20T08:30:51;-2.20;99.90
35491;DHT22;21605;52.068;20.806;2022-11-20T08:33:22;-1.80;99.90
35491;DHT22;21605;52.068;20.806;2022-11-20T08:35:48;-1.70;99.90
35491;DHT22;21605;52.068;20.806;2022-11-20T08:38:13;-1.60;99.90
35491;DHT22;21605;52.068;20.806;2022-11-20T08:40:39;-1.50;99.90
35491;DHT22;21605;52.068;20.806;2022-11-20T08:43:04;-1.40;99.90
35491;DHT22;21605;52.068;20.806;2022-11-20T08:45:30;-1.30;99.90
35491;DHT22;21605;52.068;20.806;2022-11-20T08:47:59;-1.20;99.90
35491;DHT22;21605;52.068;20.806;2022-11-20T08:50:24;-1.10;99.90
35491;DHT22;21605;52.068;20.806;2022-11-20T08:52:50;-1.00;99.90
35491;DHT22;21605;52.068;20.806;2022-11-20T08:55:15;-1.00;99.90
35491;DHT22;21605;52.068;20.806;2022-11-20T08:57:41;-1.00;99.90
35491;DHT22;21605;52.068;20.806;2022-11-20T09:00:07;-0.80;99.90
35491;DHT22;21605;52.068;20.806;2022-11-20T09:02:32;-0.70;99.90
35491;DHT22;21605;52.068;20.806;2022-11-20T09:04:58;-0.70;99.90
35491;DHT22;21605;52.068;20.806;2022-11-20T09:07:23;-0.70;99.90
35491;DHT22;21605;52.068;20.806;2022-11-20T09:09:49;-0.70;99.90
35491;DHT22;21605;52.068;20.806;2022-11-20T09:12:14;-0.60;99.90
35491;DHT22;21605;52.068;20.806;2022-11-20T09:14:40;-0.50;99.90
35491;DHT22;21605;52.068;20.806;2022-11-20T09:17:05;-0.30;99.90
35491;DHT22;21605;52.068;20.806;2022-11-20T09:19:33;-0.30;99.80
35491;DHT22;21605;52.068;20.806;2022-11-20T09:21:58;-0.40;99.80
35491;DHT22;21605;52.068;20.806;2022-11-20T09:24:25;-0.40;99.90
35491;DHT22;21605;52.068;20.806;2022-11-20T09:26:51;-0.20;99.90
35491;DHT22;21605;52.068;20.806;2022-11-20T09:29:16;-0.20;99.90
35491;DHT22;21605;52.068;20.806;2022-11-20T09:31:42;-0.10;99.90
35491;DHT22;21605;52.068;20.806;2022-11-20T09:34:07;0.00;99.90
35491;DHT22;21605;52.068;20.806;2022-11-20T09:36:32;0.10;99.90
35491;DHT22;21605;52.068;20.806;2022-11-20T09:38:58;0.10;99.90
35491;DHT22;21605;52.068;20.806;2022-11-20T09:41:36;0.10;99.90
35491;DHT22;21605;52.068;20.806;2022-11-20T09:44:28;0.30;99.90
35491;DHT22;21605;52.068;20.806;2022-11-20T09:47:01;0.60;99.90
35491;DHT22;21605;52.068;20.806;2022-11-20T09:54:38;1.30;99.90
35491;DHT22;21605;52.068;20.806;2022-11-20T09:57:15;1.50;99.90
35491;DHT22;21605;52.068;20.806;2022-11-20T09:59:43;1.70;99.90
35491;DHT22;21605;52.068;20.806;2022-11-20T10:02:42;1.70;99.60
35491;DHT22;21605;52.068;20.806;2022-11-20T10:10:21;1.50;98.50
35491;DHT22;21605;52.068;20.806;2022-11-20T10:15:27;1.90;99.90
35491;DHT22;21605;52.068;20.806;2022-11-20T10:18:11;1.80;98.80
35491;DHT22;21605;52.068;20.806;2022-11-20T10:26:26;2.00;97.70
35491;DHT22;21605;52.068;20.806;2022-11-20T10:29:04;2.20;99.20
35491;DHT22;21605;52.068;20.806;2022-11-20T10:31:34;2.70;99.90
35491;DHT22;21605;52.068;20.806;2022-11-20T10:34:01;3.10;98.10
35491;DHT22;21605;52.068;20.806;2022-11-20T10:36:29;3.30;97.50
35491;DHT22;21605;52.068;20.806;2022-11-20T10:38:57;3.70;97.00
35491;DHT22;21605;52.068;20.806;2022-11-20T10:41:28;3.70;96.50
35491;DHT22;21605;52.068;20.806;2022-11-20T10:46:45;4.60;96.80
35491;DHT22;21605;52.068;20.806;2022-11-20T10:49:17;5.00;97.50
35491;DHT22;21605;52.068;20.806;2022-11-20T10:51:54;5.40;97.20
35491;DHT22;21605;52.068;20.806;2022-11-20T10:57:13;6.10;96.90
35491;DHT22;21605;52.068;20.806;2022-11-20T10:59:50;6.30;95.90
35491;DHT22;21605;52.068;20.806;2022-11-20T11:02:20;6.80;97.50
35491;DHT22;21605;52.068;20.806;2022-11-20T11:04:47;7.20;95.20
35491;DHT22;21605;52.068;20.806;2022-11-20T11:10:15;7.20;96.50
35491;DHT22;21605;52.068;20.806;2022-11-20T11:12:47;7.30;95.30
35491;DHT22;21605;52.068;20.806;2022-11-20T11:15:58;7.60;93.60
35491;DHT22;21605;52.068;20.806;2022-11-20T11:17:59;7.40;93.60
35491;DHT22;21605;52.068;20.806;2022-11-20T11:20:25;7.30;91.30
35491;DHT22;21605;52.068;20.806;2022-11-20T11:22:55;7.60;94.90
35491;DHT22;21605;52.068;20.806;2022-11-20T11:25:28;7.20;91.30
35491;DHT22;21605;52.068;20.806;2022-11-20T11:27:55;6.70;90.10
35491;DHT22;21605;52.068;20.806;2022-11-20T11:30:22;6.60;90.00
35491;DHT22;21605;52.068;20.806;2022-11-20T11:32:47;6.40;92.00
35491;DHT22;21605;52.068;20.806;2022-11-20T11:37:45;6.10;90.20
35491;DHT22;21605;52.068;20.806;2022-11-20T11:40:12;5.70;89.20
35491;DHT22;21605;52.068;20.806;2022-11-20T11:42:42;5.40;90.30
35491;DHT22;21605;52.068;20.806;2022-11-20T11:45:11;5.60;93.30
35491;DHT22;21605;52.068;20.806;2022-11-20T11:50:17;6.10;94.90
35491;DHT22;21605;52.068;20.806;2022-11-20T12:00:58;6.00;92.70
35491;DHT22;21605;52.068;20.806;2022-11-20T12:03:28;5.80;91.20
35491;DHT22;21605;52.068;20.806;2022-11-20T12:06:01;7.60;93.40
35491;DHT22;21605;52.068;20.806;2022-11-20T12:13:40;6.10;94.90
35491;DHT22;21605;52.068;20.806;2022-11-20T12:16:09;6.30;96.00
35491;DHT22;21605;52.068;20.806;2022-11-20T12:18:36;6.40;95.60
35491;DHT22;21605;52.068;20.806;2022-11-20T12:23:44;6.40;95.00
35491;DHT22;21605;52.068;20.806;2022-11-20T12:26:45;6.10;92.40
35491;DHT22;21605;52.068;20.806;2022-11-20T12:29:09;6.00;93.70
35491;DHT22;21605;52.068;20.806;2022-11-20T12:34:19;5.80;92.80
35491;DHT22;21605;52.068;20.806;2022-11-20T12:37:00;5.60;93.30
35491;DHT22;21605;52.068;20.806;2022-11-20T12:39:34;5.60;94.60
35491;DHT22;21605;52.068;20.806;2022-11-20T12:50:48;4.80;93.70
35491;DHT22;21605;52.068;20.806;2022-11-20T12:56:00;2.90;93.90
35491;DHT22;21605;52.068;20.806;2022-11-20T13:03:48;4.50;95.20
35491;DHT22;21605;52.068;20.806;2022-11-20T13:06:17;4.40;94.70
35491;DHT22;21605;52.068;20.806;2022-11-20T13:08:53;4.30;94.80
35491;DHT22;21605;52.068;20.806;2022-11-20T13:18:50;4.10;95.30
35491;DHT22;21605;52.068;20.806;2022-11-20T13:21:35;4.00;94.80
35491;DHT22;21605;52.068;20.806;2022-11-20T13:24:04;3.90;95.00
35491;DHT22;21605;52.068;20.806;2022-11-20T13:26:30;3.80;94.80
35491;DHT22;21605;52.068;20.806;2022-11-20T13:29:09;3.80;94.80
35491;DHT22;21605;52.068;20.806;2022-11-20T13:31:36;3.70;95.00
35491;DHT22;21605;52.068;20.806;2022-11-20T13:34:05;3.60;94.70
35491;DHT22;21605;52.068;20.806;2022-11-20T13:36:31;3.50;94.80
35491;DHT22;21605;52.068;20.806;2022-11-20T13:38:58;3.40;94.30
35491;DHT22;21605;52.068;20.806;2022-11-20T13:41:33;3.30;94.50
35491;DHT22;21605;52.068;20.806;2022-11-20T13:44:10;3.20;94.70
35491;DHT22;21605;52.068;20.806;2022-11-20T13:46:38;3.20;95.10
35491;DHT22;21605;52.068;20.806;2022-11-20T13:49:08;3.20;95.00
35491;DHT22;21605;52.068;20.806;2022-11-20T13:51:47;3.00;94.90
35491;DHT22;21605;52.068;20.806;2022-11-20T14:02:13;2.90;95.80
35491;DHT22;21605;52.068;20.806;2022-11-20T14:04:42;2.70;95.10
35491;DHT22;21605;52.068;20.806;2022-11-20T14:07:08;2.70;95.60
35491;DHT22;21605;52.068;20.806;2022-11-20T14:09:34;2.60;95.40
35491;DHT22;21605;52.068;20.806;2022-11-20T14:12:01;2.50;95.30
35491;DHT22;21605;52.068;20.806;2022-11-20T14:14:27;2.50;95.50
35491;DHT22;21605;52.068;20.806;2022-11-20T14:17:03;2.40;95.40
35491;DHT22;21605;52.068;20.806;2022-11-20T14:19:30;2.30;95.70
35491;DHT22;21605;52.068;20.806;2022-11-20T14:24:40;2.20;95.60
35491;DHT22;21605;52.068;20.806;2022-11-20T14:27:11;2.20;96.20
35491;DHT22;21605;52.068;20.806;2022-11-20T14:29:37;2.10;95.70
35491;DHT22;21605;52.068;20.806;2022-11-20T14:32:03;2.10;95.80
35491;DHT22;21605;52.068;20.806;2022-11-20T14:34:30;2.00;95.80
35491;DHT22;21605;52.068;20.806;2022-11-20T14:36:57;2.00;96.00
35491;DHT22;21605;52.068;20.806;2022-11-20T14:39:42;1.90;95.90
35491;DHT22;21605;52.068;20.806;2022-11-20T14:42:14;1.90;96.00
35491;DHT22;21605;52.068;20.806;2022-11-20T14:44:40;1.80;96.00
35491;DHT22;21605;52.068;20.806;2022-11-20T14:47:06;1.80;96.00
35491;DHT22;21605;52.068;20.806;2022-11-20T14:49:32;1.70;96.00
35491;DHT22;21605;52.068;20.806;2022-11-20T14:52:02;1.70;96.10
35491;DHT22;21605;52.068;20.806;2022-11-20T14:54:27;1.60;96.20
35491;DHT22;21605;52.068;20.806;2022-11-20T14:56:54;1.60;96.30
35491;DHT22;21605;52.068;20.806;2022-11-20T14:59:28;1.50;96.40
35491;DHT22;21605;52.068;20.806;2022-11-20T15:01:58;1.50;96.40
35491;DHT22;21605;52.068;20.806;2022-11-20T15:04:24;1.50;96.60
35491;DHT22;21605;52.068;20.806;2022-11-20T15:06:50;1.50;96.80
35491;DHT22;21605;52.068;20.806;2022-11-20T15:09:16;1.40;96.60
35491;DHT22;21605;52.068;20.806;2022-11-20T15:11:50;1.40;96.50
35491;DHT22;21605;52.068;20.806;2022-11-20T15:14:17;1.30;96.60
35491;DHT22;21605;52.068;20.806;2022-11-20T15:16:42;1.30;96.60
35491;DHT22;21605;52.068;20.806;2022-11-20T15:19:13;1.30;96.70
35491;DHT22;21605;52.068;20.806;2022-11-20T15:21:41;1.20;96.70
35491;DHT22;21605;52.068;20.806;2022-11-20T15:24:08;1.10;97.00
35491;DHT22;21605;52.068;20.806;2022-11-20T15:26:33;1.10;97.00
35491;DHT22;21605;52.068;20.806;2022-11-20T15:28:59;1.10;97.40
35491;DHT22;21605;52.068;20.806;2022-11-20T15:31:25;1.00;97.80
35491;DHT22;21605;52.068;20.806;2022-11-20T15:33:50;1.00;97.80
35491;DHT22;21605;52.068;20.806;2022-11-20T15:36:16;0.80;98.40
35491;DHT22;21605;52.068;20.806;2022-11-20T15:38:42;0.80;97.90
35491;DHT22;21605;52.068;20.806;2022-11-20T15:41:07;0.80;98.10
35491;DHT22;21605;52.068;20.806;2022-11-20T15:43:33;0.70;98.10
35491;DHT22;21605;52.068;20.806;2022-11-20T15:46:00;0.70;98.30
35491;DHT22;21605;52.068;20.806;2022-11-20T15:48:34;0.60;98.00
35491;DHT22;21605;52.068;20.806;2022-11-20T15:53:34;0.50;98.50
35491;DHT22;21605;52.068;20.806;2022-11-20T15:56:02;0.40;98.90
35491;DHT22;21605;52.068;20.806;2022-11-20T15:58:28;0.40;98.80
35491;DHT22;21605;52.068;20.806;2022-11-20T16:00:53;0.30;98.90
35491;DHT22;21605;52.068;20.806;2022-11-20T16:03:19;0.30;98.90
35491;DHT22;21605;52.068;20.806;2022-11-20T16:05:45;0.20;98.70
35491;DHT22;21605;52.068;20.806;2022-11-20T16:08:10;0.20;98.90
35491;DHT22;21605;52.068;20.806;2022-11-20T16:10:36;0.10;98.90
35491;DHT22;21605;52.068;20.806;2022-11-20T16:13:02;0.10;99.20
35491;DHT22;21605;52.068;20.806;2022-11-20T16:15:56;0.00;99.40
35491;DHT22;21605;52.068;20.806;2022-11-20T16:18:22;0.00;99.40
35491;DHT22;21605;52.068;20.806;2022-11-20T16:20:48;-0.10;99.00
35491;DHT22;21605;52.068;20.806;2022-11-20T16:23:14;-0.10;99.60
35491;DHT22;21605;52.068;20.806;2022-11-20T16:25:41;-0.20;99.20
35491;DHT22;21605;52.068;20.806;2022-11-20T16:28:06;-0.30;99.90
35491;DHT22;21605;52.068;20.806;2022-11-20T16:30:32;-0.30;99.80
35491;DHT22;21605;52.068;20.806;2022-11-20T16:32:58;-0.30;99.60
35491;DHT22;21605;52.068;20.806;2022-11-20T16:35:28;-0.40;99.60
35491;DHT22;21605;52.068;20.806;2022-11-20T16:37:54;-0.40;99.80
35491;DHT22;21605;52.068;20.806;2022-11-20T16:40:19;-0.50;99.90
35491;DHT22;21605;52.068;20.806;2022-11-20T16:42:45;-0.50;99.90
35491;DHT22;21605;52.068;20.806;2022-11-20T16:45:10;-0.60;99.90
35491;DHT22;21605;52.068;20.806;2022-11-20T16:47:36;-0.70;99.90
35491;DHT22;21605;52.068;20.806;2022-11-20T16:50:02;-0.70;99.90
35491;DHT22;21605;52.068;20.806;2022-11-20T16:52:28;-0.80;99.90
35491;DHT22;21605;52.068;20.806;2022-11-20T16:54:54;-0.80;99.90
35491;DHT22;21605;52.068;20.806;2022-11-20T16:57:20;-0.80;99.90